Terminal Aerodrome Forecast
Issued by NWS

Home | Current Version | Previous Version | Text Only | Print | Product List | Glossary On
Versions: 1 2 3 4 5 6 7 8 9 10 11 12
000
FTUS45 KVEF 182320
TAFDAG
TAF
KDAG 182320Z 1900/1924 30008KT P6SM BKN150
     FM190200 26011KT P6SM FEW150
     FM192000 26015G23KT P6SM SKC=

USA.gov is the U.S. government's official web portal to all federal, state and local government web resources and services.